createdAt,value
2019-02-15T00:00:04.363Z,70.20
2019-02-15T00:02:41.415Z,70.60
2019-02-15T00:05:11.002Z,70.60
2019-02-15T00:07:42.603Z,70.60
2019-02-15T00:10:17.820Z,70.80
2019-02-15T00:12:48.492Z,70.80
2019-02-15T00:15:19.221Z,70.90
2019-02-15T00:17:55.459Z,71.10
2019-02-15T00:20:41.427Z,71.00
2019-02-15T00:23:11.185Z,71.10
2019-02-15T00:25:42.389Z,71.00
2019-02-15T00:28:16.371Z,71.00
2019-02-15T00:30:48.748Z,71.10
2019-02-15T00:33:20.045Z,71.10
2019-02-15T00:35:55.114Z,71.30
2019-02-15T00:38:25.648Z,71.30
2019-02-15T00:40:58.253Z,71.40
2019-02-15T00:43:28.562Z,71.60
2019-02-15T00:46:11.525Z,71.60
2019-02-15T00:48:51.618Z,72.00
2019-02-15T00:51:40.614Z,72.00
2019-02-15T00:54:14.494Z,71.80
2019-02-15T00:56:46.468Z,72.00
2019-02-15T00:59:23.743Z,72.40
2019-02-15T01:02:12.613Z,72.20
2019-02-15T01:04:58.973Z,72.20
2019-02-15T01:07:30.155Z,72.30
2019-02-15T01:10:04.614Z,72.10
2019-02-15T01:12:36.011Z,72.20
2019-02-15T01:15:07.531Z,72.20
2019-02-15T01:17:37.220Z,72.40
2019-02-15T01:20:06.836Z,72.40
2019-02-15T01:22:36.652Z,72.40
2019-02-15T01:25:06.769Z,72.50
2019-02-15T01:27:37.900Z,72.70
2019-02-15T01:30:19.621Z,72.80
2019-02-15T01:32:51.998Z,72.70
2019-02-15T01:35:26.298Z,72.60
2019-02-15T01:38:03.973Z,72.60
2019-02-15T01:40:37.751Z,73.50
2019-02-15T01:43:17.176Z,72.90
2019-02-15T01:45:57.336Z,73.10
2019-02-15T01:48:29.802Z,73.10
2019-02-15T01:50:59.419Z,73.20
2019-02-15T01:53:29.903Z,73.30
2019-02-15T01:55:59.557Z,73.50
2019-02-15T01:58:30.676Z,73.60
2019-02-15T02:01:00.433Z,73.70
2019-02-15T02:03:30.997Z,73.70
2019-02-15T02:06:03.062Z,73.80
2019-02-15T02:08:35.326Z,73.90
2019-02-15T02:11:08.159Z,73.90
2019-02-15T02:13:38.634Z,74.30
2019-02-15T02:16:08.540Z,74.30
2019-02-15T02:18:40.158Z,74.40
2019-02-15T02:21:09.799Z,74.50
2019-02-15T02:23:40.154Z,74.70
2019-02-15T02:26:13.472Z,74.50
2019-02-15T02:28:45.608Z,74.70
2019-02-15T02:31:15.316Z,74.80
2019-02-15T02:33:49.707Z,75.60
2019-02-15T02:39:17.975Z,75.20
2019-02-15T02:41:50.481Z,75.40
2019-02-15T02:44:30.690Z,75.50
2019-02-15T02:47:08.169Z,75.50
2019-02-15T02:49:47.386Z,75.60
2019-02-15T02:52:26.084Z,75.60
2019-02-15T02:55:00.043Z,75.90
2019-02-15T02:57:36.799Z,76.20
2019-02-15T03:00:09.962Z,76.20
2019-02-15T03:02:42.697Z,76.20
2019-02-15T03:05:16.355Z,76.10
2019-02-15T03:07:49.439Z,76.20
2019-02-15T03:10:22.726Z,76.00
2019-02-15T03:12:55.364Z,76.20
2019-02-15T03:15:31.138Z,76.10
2019-02-15T03:18:09.361Z,76.10
2019-02-15T03:20:51.755Z,76.30
2019-02-15T03:29:18.314Z,76.40
2019-02-15T03:31:52.406Z,76.60
2019-02-15T03:34:25.150Z,76.50
2019-02-15T03:37:09.992Z,76.60
2019-02-15T03:39:50.873Z,76.60
2019-02-15T03:42:30.354Z,76.70
2019-02-15T03:45:03.027Z,76.70
2019-02-15T03:47:42.398Z,76.80
2019-02-15T03:50:20.655Z,77.40
2019-02-15T03:53:00.736Z,77.00
2019-02-15T03:58:29.639Z,77.10
2019-02-15T04:01:18.136Z,77.40
2019-02-15T04:03:50.920Z,77.70
2019-02-15T04:06:27.317Z,77.20
2019-02-15T04:09:00.501Z,77.30
2019-02-15T04:11:57.512Z,77.30
2019-02-15T04:14:36.488Z,77.40
2019-02-15T04:17:34.107Z,77.40
2019-02-15T04:20:06.206Z,77.50
2019-02-15T04:22:45.003Z,77.70
2019-02-15T04:25:19.647Z,77.80
2019-02-15T04:27:59.420Z,77.80
2019-02-15T04:30:55.957Z,78.00
2019-02-15T04:33:28.949Z,78.20
2019-02-15T04:36:14.648Z,78.30
2019-02-15T04:38:54.406Z,78.50
2019-02-15T04:41:41.160Z,78.60
2019-02-15T04:44:10.743Z,78.40
2019-02-15T04:46:57.905Z,78.60
2019-02-15T04:49:30.913Z,78.50
2019-02-15T04:52:06.491Z,78.50
2019-02-15T04:54:40.831Z,78.60
2019-02-15T04:58:12.927Z,78.50
2019-02-15T05:00:02.339Z,78.50
2019-02-15T05:05:44.602Z,78.60
2019-02-15T05:08:31.925Z,78.90
2019-02-15T05:13:59.034Z,78.90
2019-02-15T05:16:40.147Z,79.00
2019-02-15T05:19:44.076Z,79.00
2019-02-15T05:28:08.865Z,79.20
2019-02-15T05:30:45.575Z,79.50
2019-02-15T05:33:24.189Z,79.60
2019-02-15T05:36:04.295Z,79.60
2019-02-15T05:38:45.031Z,79.50
2019-02-15T05:41:27.038Z,79.60
2019-02-15T05:44:17.642Z,79.50
2019-02-15T05:49:57.787Z,79.10
2019-02-15T05:52:33.999Z,79.00
2019-02-15T05:55:11.382Z,79.40
2019-02-15T06:04:00.265Z,79.00
2019-02-15T06:09:40.747Z,78.70
2019-02-15T06:12:32.243Z,78.70
2019-02-15T06:22:04.070Z,78.70
2019-02-15T06:24:59.422Z,78.60
2019-02-15T06:27:40.943Z,78.40
2019-02-15T06:30:17.994Z,78.20
2019-02-15T06:33:06.899Z,78.50
2019-02-15T06:35:39.205Z,78.50
2019-02-15T06:38:22.931Z,78.40
2019-02-15T06:40:57.943Z,78.50
2019-02-15T06:43:41.106Z,78.60
2019-02-15T06:46:20.880Z,78.40
2019-02-15T06:48:54.486Z,78.30
2019-02-15T06:51:31.638Z,78.20
2019-02-15T06:54:02.686Z,78.20
2019-02-15T06:56:36.616Z,78.40
2019-02-15T06:59:12.599Z,78.30
2019-02-15T07:01:50.591Z,78.30
2019-02-15T07:04:24.920Z,78.50
2019-02-15T07:07:03.823Z,78.20
2019-02-15T07:09:36.289Z,78.10
2019-02-15T07:12:09.553Z,78.10
2019-02-15T07:14:42.170Z,78.00
2019-02-15T07:17:32.458Z,77.70
2019-02-15T07:20:01.798Z,77.60
2019-02-15T07:22:37.579Z,77.70
2019-02-15T07:25:13.827Z,77.60
2019-02-15T07:27:59.166Z,77.40
2019-02-15T07:30:33.992Z,77.30
2019-02-15T07:33:06.880Z,77.00
2019-02-15T07:35:38.339Z,77.40
2019-02-15T07:38:14.766Z,77.30
2019-02-15T07:40:47.170Z,77.30
2019-02-15T07:43:22.941Z,77.00
2019-02-15T07:45:58.311Z,77.10
2019-02-15T07:48:30.048Z,77.10
2019-02-15T07:51:13.009Z,77.00
2019-02-15T07:53:49.052Z,76.60
2019-02-15T07:56:27.779Z,76.60
2019-02-15T07:59:06.265Z,77.00
2019-02-15T08:02:02.776Z,77.10
2019-02-15T08:14:27.290Z,68.80
2019-02-15T08:32:20.365Z,56.00
2019-02-15T09:49:27.880Z,42.00
2019-02-15T09:52:12.459Z,42.00
2019-02-15T09:55:14.161Z,41.10
2019-02-15T09:59:49.132Z,40.40
2019-02-15T10:01:03.386Z,38.60
2019-02-15T10:25:27.296Z,37.80
2019-02-15T10:31:16.732Z,35.50
2019-02-15T11:20:47.535Z,32.60
2019-02-15T11:29:26.626Z,32.70
2019-02-15T11:46:56.281Z,30.90
2019-02-15T12:57:42.783Z,30.00
2019-02-15T13:09:41.222Z,29.40
2019-02-15T13:28:01.979Z,29.70
2019-02-15T14:46:26.037Z,35.30
2019-02-15T15:05:26.838Z,37.30
2019-02-15T15:08:32.414Z,37.60
2019-02-15T15:11:19.274Z,37.70
2019-02-15T15:14:02.572Z,37.40
2019-02-15T15:16:39.227Z,37.90
2019-02-15T15:19:34.007Z,38.60
2019-02-15T15:22:12.412Z,38.80
2019-02-15T15:24:46.866Z,38.80
2019-02-15T15:27:23.601Z,39.10
2019-02-15T15:30:04.565Z,39.50
2019-02-15T15:32:45.004Z,40.20
2019-02-15T15:41:48.114Z,39.70
2019-02-15T15:44:32.247Z,40.00
2019-02-15T15:47:29.374Z,39.90
2019-02-15T15:50:25.427Z,40.30
2019-02-15T15:53:30.914Z,40.40
2019-02-15T15:56:12.506Z,40.40
2019-02-15T15:59:00.542Z,40.90
2019-02-15T16:01:38.689Z,40.90
2019-02-15T16:04:23.566Z,40.90
2019-02-15T16:07:03.717Z,41.30
2019-02-15T16:13:03.252Z,41.50
2019-02-15T16:15:53.364Z,41.90
2019-02-15T16:18:34.840Z,42.20
2019-02-15T16:21:22.037Z,42.30
2019-02-15T16:24:12.114Z,42.50
2019-02-15T16:26:43.769Z,43.10
2019-02-15T16:29:35.035Z,43.00
2019-02-15T16:32:30.759Z,43.20
2019-02-15T16:35:15.569Z,43.30
2019-02-15T16:37:48.878Z,43.70
2019-02-15T16:40:25.919Z,44.10
2019-02-15T16:43:00.752Z,44.90
2019-02-15T16:45:32.210Z,45.90
2019-02-15T16:48:09.791Z,46.00
2019-02-15T16:50:42.450Z,46.60
2019-02-15T16:53:14.557Z,47.10
2019-02-15T16:55:48.868Z,47.90
2019-02-15T16:58:25.985Z,48.20
2019-02-15T17:00:59.996Z,48.80
2019-02-15T17:03:31.296Z,49.10
2019-02-15T17:06:03.999Z,49.50
2019-02-15T17:08:36.358Z,49.80
2019-02-15T17:11:06.348Z,50.40
2019-02-15T17:13:40.538Z,49.80
2019-02-15T17:16:12.569Z,50.60
2019-02-15T17:18:52.175Z,50.90
2019-02-15T17:21:28.301Z,51.20
2019-02-15T17:24:00.375Z,51.40
2019-02-15T17:26:35.425Z,51.20
2019-02-15T17:29:09.184Z,51.30
2019-02-15T17:31:40.524Z,51.70
2019-02-15T17:34:11.917Z,51.70
2019-02-15T17:36:44.147Z,51.60
2019-02-15T17:39:14.515Z,52.00
2019-02-15T17:41:45.948Z,52.30
2019-02-15T17:44:20.657Z,52.60
2019-02-15T17:46:55.035Z,52.70
2019-02-15T17:49:33.300Z,52.80
2019-02-15T17:52:07.988Z,53.10
2019-02-15T17:54:46.084Z,53.40
2019-02-15T17:57:26.152Z,53.60
2019-02-15T17:59:52.047Z,54.00
2019-02-15T18:02:22.101Z,54.00
2019-02-15T18:04:51.905Z,54.20
2019-02-15T18:07:27.101Z,54.40
2019-02-15T18:09:56.841Z,54.90
2019-02-15T18:12:26.631Z,55.00
2019-02-15T18:15:07.149Z,55.20
2019-02-15T18:20:42.737Z,55.50
2019-02-15T18:23:18.763Z,55.80
2019-02-15T18:26:25.265Z,55.90
2019-02-15T18:29:02.175Z,56.20
2019-02-15T18:31:36.357Z,56.30
2019-02-15T18:34:14.751Z,56.60
2019-02-15T18:37:07.866Z,56.30
2019-02-15T18:45:39.942Z,56.80
2019-02-15T18:48:20.630Z,56.90
2019-02-15T18:53:49.165Z,57.10
2019-02-15T18:56:32.450Z,57.10
2019-02-15T18:59:10.829Z,57.40
2019-02-15T19:01:48.890Z,57.40
2019-02-15T19:08:00.819Z,57.60
2019-02-15T19:13:45.573Z,57.30
2019-02-15T19:16:29.661Z,57.60
2019-02-15T19:19:08.975Z,57.50
2019-02-15T19:21:43.006Z,57.50
2019-02-15T19:24:21.011Z,58.20
2019-02-15T19:26:55.331Z,57.70
2019-02-15T19:29:27.749Z,57.80
2019-02-15T19:32:02.473Z,57.90
2019-02-15T19:34:43.074Z,58.10
2019-02-15T19:37:31.746Z,58.20
2019-02-15T19:40:14.759Z,58.30
2019-02-15T19:43:29.061Z,58.60
2019-02-15T19:48:55.844Z,58.80
2019-02-15T19:51:30.201Z,59.10
2019-02-15T19:54:04.081Z,59.00
2019-02-15T19:56:38.098Z,59.10
2019-02-15T19:59:20.666Z,59.10
2019-02-15T20:01:51.715Z,59.10
2019-02-15T20:04:21.352Z,59.10
2019-02-15T20:07:09.609Z,59.20
2019-02-15T20:09:34.705Z,59.30
2019-02-15T20:12:09.069Z,60.20
2019-02-15T20:14:38.640Z,59.50
2019-02-15T20:17:08.140Z,59.80
2019-02-15T20:19:37.786Z,59.90
2019-02-15T20:22:07.224Z,60.50
2019-02-15T20:24:36.783Z,60.40
2019-02-15T20:27:07.283Z,60.70
2019-02-15T20:29:36.766Z,61.00
2019-02-15T20:32:06.296Z,61.20
2019-02-15T20:34:45.035Z,61.20
2019-02-15T20:37:07.883Z,61.50
2019-02-15T20:39:38.093Z,61.60
2019-02-15T20:42:07.527Z,61.70
2019-02-15T20:44:37.727Z,61.90
2019-02-15T20:47:08.741Z,62.10
2019-02-15T20:49:38.375Z,62.60
2019-02-15T20:52:07.937Z,62.50
2019-02-15T20:54:38.406Z,62.70
2019-02-15T20:57:08.136Z,62.80
2019-02-15T20:59:38.481Z,63.10
2019-02-15T21:02:11.123Z,63.20
2019-02-15T21:04:41.871Z,63.20
2019-02-15T21:07:16.276Z,63.80
2019-02-15T21:09:46.104Z,63.70
2019-02-15T21:12:15.886Z,63.80
2019-02-15T21:14:45.515Z,64.10
2019-02-15T21:17:15.046Z,64.60
2019-02-15T21:19:46.174Z,64.50
2019-02-15T21:22:21.046Z,64.90
2019-02-15T21:24:50.524Z,65.10
2019-02-15T21:27:20.171Z,64.90
2019-02-15T21:29:49.654Z,65.20
2019-02-15T21:32:19.282Z,65.80
2019-02-15T21:34:48.832Z,65.70
2019-02-15T21:37:18.991Z,66.20
2019-02-15T21:39:48.453Z,66.20
2019-02-15T21:42:18.210Z,66.50
2019-02-15T21:44:47.890Z,66.00
2019-02-15T21:47:17.504Z,66.40
2019-02-15T21:49:47.116Z,66.70
2019-02-15T21:52:16.639Z,66.30
2019-02-15T21:54:47.171Z,66.70
2019-02-15T21:57:16.679Z,66.40
2019-02-15T21:59:46.530Z,66.60
2019-02-15T22:02:18.828Z,66.40
2019-02-15T22:04:48.337Z,66.50
2019-02-15T22:07:19.396Z,66.30
2019-02-15T22:09:50.360Z,66.50
2019-02-15T22:12:19.886Z,66.90
2019-02-15T22:14:49.432Z,66.70
2019-02-15T22:17:18.867Z,66.30
2019-02-15T22:19:48.471Z,66.00
2019-02-15T22:22:18.322Z,65.70
2019-02-15T22:24:48.503Z,65.50
2019-02-15T22:27:38.173Z,65.30
2019-02-15T22:30:12.790Z,65.20
2019-02-15T22:32:42.711Z,64.70
2019-02-15T22:35:12.325Z,64.70
2019-02-15T22:37:41.678Z,64.40
2019-02-15T22:40:33.292Z,64.40
2019-02-15T22:43:08.076Z,64.40
2019-02-15T22:45:37.558Z,64.10
2019-02-15T22:48:08.096Z,64.00
2019-02-15T22:50:37.714Z,64.10
2019-02-15T22:53:08.341Z,64.00
2019-02-15T22:55:37.903Z,63.80
2019-02-15T22:58:09.211Z,63.70
2019-02-15T23:00:54.634Z,63.50
2019-02-15T23:03:26.634Z,63.60
2019-02-15T23:05:56.150Z,63.50
2019-02-15T23:08:26.225Z,63.00
2019-02-15T23:10:55.662Z,62.60
2019-02-15T23:13:30.083Z,62.50
2019-02-15T23:15:59.553Z,62.10
2019-02-15T23:18:29.050Z,61.70
2019-02-15T23:20:58.661Z,61.50
2019-02-15T23:23:28.852Z,61.40
2019-02-15T23:25:58.390Z,61.20
2019-02-15T23:28:27.793Z,61.10
2019-02-15T23:30:57.388Z,61.00
2019-02-15T23:33:26.982Z,60.80
2019-02-15T23:35:56.550Z,60.60
2019-02-15T23:38:26.221Z,60.80
2019-02-15T23:40:58.981Z,60.60
2019-02-15T23:43:28.420Z,60.70
2019-02-15T23:45:57.977Z,60.40
2019-02-15T23:52:02.592Z,60.40
2019-02-15T23:54:32.691Z,60.20
2019-02-15T23:57:02.296Z,60.20
2019-02-15T23:59:32.561Z,60.20
